Timeline UpdatesTrip UpdatesNews PostsPvt Posts♥♥Travel TipsAdmin PostsConv PostsFollowed PostsChat RequestsBlog PostsPNR Posts

Disclaimer
Search
 
 
Sat Nov 22, 2014 20:59:09 ISTHomeTrainsΣChainsAtlasPNRForumGalleryNewsFAQTripsMembersLoginFeedback
No Recent News for this Train
Other Trains in the News **new
Latest...
..
Mon Dec 30, 2013 (12:01AM)
⇐ Return Journey: Train# 19037

19038/Avadh Express

Time-Table HAS CHANGED.
Sep 01 2014 (11:38PM)
Change Departure Station:
Change Arrival Station:
Post a Train Travel TipPost a Train Travel Tip **new
Post a Comment/Question/Picture/VideoPost a Comment/Question/Picture/Video
Pantry/Catering
✓ Pantry Car Avbl
✓ Catering Avbl
Loco/Rake Reversals
LJN/Lucknow Junction NER (6);
RSA - Rake Sharing
19039/19040 Avadh Express.
Rake/Coach Composition
ENGINE-SLR-GEN-GEN-A1-B1-B2-PC-S1-S2-S3-S4-S5-S6-S7-S8-S9-S10-S11-S12-S13-S14-S15-SLR; Total 23 Coaches.
Loco
GKP-LJN: GD WDM-3A LJN-BDTS: BRC WAP-4
News    PNR    Forum    Time-Table    Availability    Fare Chart    Map    Arr/Dep History    Trips    Gallery    ΣChains    X/O    Timeline    
Travel Time: 24h 8m    44 halts    Distance: 1083 km    Avg Speed: 44 km/hr
Type: Mail/Express
Zone: WR/Western
Departs @ 13:20 (Avg 2m late)
Platform# 7
 M W FS
Gorakhpur Junction/GKP 
Arrives @ 13:28 +1 night (Avg 1h 7m late)
Platform# ???
S T T S
Suwasra/SVA 

44 halts. 161 intermediate Stations between Gorakhpur Junction and Suwasra

Show ALL intermediate Stations  Show Old Time-Table

#TrkCodeStation NameX/OArrivesAvgDepartsAvgHaltPFDay#KmSpeedElevZoneAddress
1%==%GKPGorakhpur Junction (10)»  -13:20+2710.04084mNERGorakhpur 273001, Uttar Pradesh
2%==%SWASahjanwa (2)X  13:45 13:46+1513:47 13:48+182m--117.15080mNERGorakhpur - 273209, Uttar Pradesh
3%==%MHHMaghar (3)X  13:58+1914:00+192m--125.45183mNERNH 28. Distt- SantKabirNagar- 272173, Uttar Pradesh
4%==%KLDKhalilabad (3)X  14:09 14:10+1914:11 14:12+192m--133.96386mNERKhalilabad- 272175, Uttar Pradesh
5%==%BSTBasti (4)  14:40+2014:45+215m2163.58090mNERBasti 272001, Uttar Pradesh
6%==%BVBabhnan (2)  15:08+2515:10+262m--194.247101mNERDistrict- Basti, Uttar Pradesh
7%==%MSWMaskanwa (2)X  15:30+2315:32+252m--1109.953103mNERChhapaiya Rd, Uttar Pradesh
8%==%MURMankapur Junction (5)X  15:50 15:48+2615:52 15:50+262m21124.067104mNERDistrict Gonda, Uttar Pradesh
9%==/GDGonda Junction (3)X  16:20 16:15+3316:35 16:30+3315m11151.972110mNERGonda 271001, Uttar Pradesh
10/==/CLJColonelGanj (2)X  16:58 16:54+5217:00 16:56+522m--1180.865108mNERGonda, Uttar Pradesh
11/==/JLDJarwal Road (2)X  17:16 17:12+5717:18 17:14+572m--1198.054112mNERBehraich, Uttar Pradesh
12/==/BUWBurhwal Junction (3)X  17:40 17:32+5917:42 17:34+1:012m--1214.141119mNERBarabanki, Uttar Pradesh
13/==/BBKBarabanki Junction (4)X  18:14+5218:16+522m21241.245 NRPin-225001, Uttar Pradesh
14/--/GTNRGomti Nagar (3)  18:43+5418:45+542m11261.517117mNERLucknow, Uttar Pradesh
15/--/BNZBadshahnagar (2)X  19:00+4919:05+475m11265.810116mNERLucknow, Uttar Pradesh
16/--/LCLucknow City (3)  19:28 19:41+3119:30 19:43+332m11272.19127mNERLucknow, Uttar Pradesh
17/--/LJNLucknow Junction NER (6)XO20:15+1720:55+940m41276.861126mNERLucknow, Uttar Pradesh
18/==/ONUnnao Junction (5)X  21:48+1721:50+172m--1330.726129mNRUnnao, Uttar Pradesh
19/==/CNBKanpur Central (10)  22:30+1522:35 22:37+205 7m--1348.177128mNCRKANPUR-208 001, Uttar Pradesh
20/==/PHDPhaphund (4)X  23:32 23:42+4523:34 23:44+532m--1431.350146mNCRdist. Auraiya, Uttar Pradesh
21/==/BNTBharthana (3)X  00:22 00:28+4900:24 00:30+562m--2467.660147mNCRBharthana, Uttar Pradesh
22/==/ETWEtawah (5)X  00:46 00:50+5700:48 00:55+592 5m22487.479154mNCRDistt. Etawah, Uttar Pradesh
23/==/SKBShikohabad Junction (4)X  01:26 01:37+1:1401:28 01:42+1:162 5m32542.843166mNCRDistrict Firozabad, Uttar Pradesh
24/==/FZDFirozabad (4)XO  01:53 02:10+1:0701:55 02:15+1:122 5m32562.722164mNCRFirozabad, Uttar Pradesh
25/==/TDLTundla Junction (5)  03:05 03:00+5103:10 03:05+575m22579.325167mNCRDistt.Firozabad, Uttar Pradesh
26/--/AFAgra Fort (3)  04:00+5804:10+1:0410m12602.216170mNCRRakabganj, Uttar Pradesh
27/=-/IDHIdgah Agra Junction (3)  04:18+1:0804:20+1:092m--2604.334168mNCRAgra, Uttar Pradesh
28/--/KLBKiraoli (1)X  05:08 04:58+1:0005:10 05:00+1:062m12626.034174mNCRKiraoli, Uttar Pradesh
29/--/FTSFatehpur Sikri (2)  05:22+1:0005:24+1:002m--2638.457176mNCRAgra, Uttar Pradesh
30/--/RBSRupbas (2)  05:39+1:0005:41+1:012m--2652.626178mNCRJAGNER ROAD, Rajasthan
31/--/BXNBayana Junction (3)X  07:00+3307:05+355m--2686.799198mWCRBayana, Rajasthan
32/==/HANHindaun City (2)  07:25+4207:27+422m--2719.668230mWCRKarauli, Rajasthan
33/==/SMBJShri Mahabirji (3)X  07:36+4307:38+432m--2729.876240mWCRKarauli, Rajasthan
34/==/GGCGangapur City (3)  08:05+4308:10+455m--2763.877270mWCRGangapur, Rajasthan
35/==/SWMSawai Madhopur Junction (4)  09:00+4909:05+495m--2827.891266mWCRSawai Madhopur, Rajasthan
36/==/IDGIndargarh Sumerganj Mandi (2)  09:32 09:29+5509:33 09:31+551 2m--2864.055247mWCRIndargarh, Rajasthan
37/==/LKELakheri (3)X  09:46 09:43+5409:47 09:45+541 2m--2875.056228mWCRBundi, Rajasthan
38/==/KOTAKota Junction (5)X  10:50+4710:55+525m22935.643256mWCRKota, Rajasthan
39/==/DKNTDakaniya Talav (2)  11:08+5111:10+522m22944.974278mWCRKota, Rajasthan
40/==/MKXMorak (2)X  11:53+5811:55+592m--2997.849337mWCRMorak, Rajasthan
41/==/RMARamganj Mandi Junction (3)  12:06+5912:08+592m--21006.862358mWCRRamganj Mandi, Rajasthan
42/==/JHWJhalawar Road (3)X  12:20+5912:22+592m--21019.271361mWCRJhalawar City, Rajasthan
43/==/BWMBhawani Mandi (3)X  12:36+5912:38+592m--21035.776384mWCRBhawani Mandi, Madhya Pradesh
44/==/GOHGaroth (2)  12:56+1:0312:58+1:032m121058.354441mWCRMadhya Pradesh 458880, Madhya Pradesh
45/==/SGZShamgarh (3)  13:10+1:0413:15+1:035m--21069.262463mWCRMandsaur, Madhya Pradesh
46/==/SVASuwasra (2)•  13:28+1:0713:30+1:072m--21082.651450mWCRSuwasra, Madhya Pradesh
47/==/CMUChau Mahla (3)  13:43 13:48+1:0213:45 13:50+1:032m121098.025426mWCRJhalawar, Rajasthan
48/==/VMAVikramgarh Alot (2)X  14:43+3514:45+472m121119.843443mWCRKota Division, Madhya Pradesh
49/==/MEPMahidpur RoadX  15:18+4715:20+592m--21143.741493mWCRGogapur, Madhya Pradesh
50/==/NADNagda Junction (4)X  15:45+4115:47+442m--21160.864468mWRNagda, Madhya Pradesh
51/==/KUHKhachrod (2)  15:58 16:00+4616:00 16:02+452m--21174.659497mWRUjjain, Madhya Pradesh
52/==/RTMRatlam Junction (7)  16:30+4716:50+4620m421202.271495mWRRatlam 457001, Madhya Pradesh
53/==/BMIBamnia (2)  17:25 17:28+5317:27 17:30+532m--21246.976392mWRBamnia, Madhya Pradesh
54/==/MGNMeghnagar (3)  17:55 17:58+5617:57 18:00+552m--21282.583317mWRJhabua, Madhya Pradesh
55/==/DHDDahod (3)  18:20 18:24+5618:22 18:26+562m221315.649313mWRDahod, Gujarat
56/==/GDAGodhra Junction (3)X  19:55+3719:57+372m--21388.776122mWRGodhra, Gujarat
57/==/BRCVadodara Junction (7)X  20:55+4021:05+4010m121462.68936mWRVadodara 390005, Gujarat
58/==/AKVAnkleshwar Junction (4)X  21:59+3422:01+352m221542.43619mWRAnkleshwar, Gujarat
59/==/STSurat (4)X  23:25+2623:30+275m221592.46219mWRSurat 395001, Gujarat
60/==/BLValsad (3)  00:36+3200:37+341m331661.17915mWRValsad, Gujarat
61/==/VAPIVapi (3)X  00:57+4000:59+412m231687.36827mWRVapi, Gujarat
62/==/BORBoisar (3)  02:01+4502:03+452m331757.64517mWRBoisar Tel.no-02525-266626, Maharashtra
63/==/BVIMumbai Borivali (8)  03:35+1603:40+165m631825.83419mWRMumbai - 400092, Maharashtra
64/==/ADHMumbai Andheri (9)O  04:02+1904:04+202m--31838.41212mWRMumbai, Maharashtra
65/==/BDTSMumbai Bandra Terminus (5)  04:35+15-231844.6-4mWRMumbai 400050, Maharashtra
Scroll to Top
Scroll to Bottom